PWSweather.com
Personal Weather Stations
Station Observations

YeovilGB

Lat: 50.949, Lon: -2.627

Elevation: 70

Station Type: Vantage Pro

http://www.yeovil-weather.me.uk/

High Low Average
Temperature 56.4°F13.6°C 48.8°F9.3°C 52.5°F11.4°C
Dew Point 54.2°F12.3°C 47.7°F8.7°C 50.7°F10.4°C
Winds 13.8 mph 22.2 kmh Calm Calm 5.0 mph S8.0 kmh S
Wind Gusts 25.3 mph40.7 kmh -- 11.0 mph17.7 kmh
Humidity 97% 90% 94%
Pressure 29.55 in1000.7 mb 29.08 in984.8 mb -
Precipitation 0.21 in5.3 mm - -
Hour Temp Dew Point Humidity Winds Wind Gusts Pressure Precip Precip Rate Daily Precip Total
12:00 AM 49.0°F9.4°C 47.9°F8.8°C 96% Calm Calm -- 29.54 in1000.3 mb - 0.00 in0.0 mm 0.00 in0.0 mm
12:10 AM 49.0°F9.4°C 47.9°F8.8°C 96% Calm Calm -- 29.54 in1000.3 mb - 0.00 in0.0 mm 0.00 in0.0 mm
12:20 AM 49.0°F9.4°C 47.9°F8.8°C 96% Calm Calm -- 29.55 in1000.7 mb - 0.00 in0.0 mm 0.00 in0.0 mm
12:30 AM 49.2°F9.6°C 48.1°F8.9°C 96% Calm Calm -- 29.54 in1000.3 mb - 0.00 in0.0 mm 0.00 in0.0 mm
12:40 AM 49.4°F9.7°C 48.3°F9.1°C 96% Calm Calm 3.5 mph5.6 kmh 29.54 in1000.3 mb - 0.00 in0.0 mm 0.00 in0.0 mm
12:50 AM 49.5°F9.7°C 48.4°F9.1°C 96% Calm Calm -- 29.54 in1000.3 mb - 0.00 in0.0 mm 0.00 in0.0 mm
01:00 AM 49.6°F9.8°C 48.5°F9.2°C 96% Calm Calm -- 29.53 in1000.0 mb - 0.00 in0.0 mm 0.00 in0.0 mm
01:10 AM 49.7°F9.8°C 48.6°F9.2°C 96% Calm Calm -- 29.53 in1000.0 mb - 0.00 in0.0 mm 0.00 in0.0 mm
01:20 AM 49.7°F9.8°C 48.6°F9.2°C 96% Calm Calm -- 29.52 in999.7 mb - 0.00 in0.0 mm 0.00 in0.0 mm
01:30 AM 49.7°F9.8°C 48.6°F9.2°C 96% Calm Calm -- 29.51 in999.3 mb - 0.00 in0.0 mm 0.00 in0.0 mm
01:40 AM 49.6°F9.8°C 48.5°F9.2°C 96% Calm Calm -- 29.51 in999.3 mb - 0.00 in0.0 mm 0.00 in0.0 mm
01:50 AM 49.3°F9.6°C 48.2°F9.0°C 96% Calm Calm -- 29.51 in999.3 mb - 0.00 in0.0 mm 0.00 in0.0 mm
02:00 AM 49.0°F9.4°C 47.9°F8.8°C 96% Calm Calm -- 29.50 in999.0 mb - 0.00 in0.0 mm 0.00 in0.0 mm
02:10 AM 48.8°F9.3°C 47.7°F8.7°C 96% Calm Calm -- 29.50 in999.0 mb - 0.00 in0.0 mm 0.00 in0.0 mm
02:20 AM 48.8°F9.3°C 47.7°F8.7°C 96% Calm Calm -- 29.49 in998.6 mb - 0.00 in0.0 mm 0.00 in0.0 mm
02:50 AM 49.1°F9.5°C 48.0°F8.9°C 96% Calm Calm 2.3 mph3.7 kmh 29.48 in998.3 mb - 0.00 in0.0 mm 0.00 in0.0 mm
03:00 AM 49.2°F9.6°C 48.1°F8.9°C 96% Calm Calm -- 29.47 in998.0 mb - 0.00 in0.0 mm 0.00 in0.0 mm
03:10 AM 49.3°F9.6°C 48.2°F9.0°C 96% Calm Calm -- 29.46 in997.6 mb - 0.00 in0.0 mm 0.00 in0.0 mm
03:20 AM 49.4°F9.7°C 48.3°F9.1°C 96% Calm Calm -- 29.46 in997.6 mb - 0.00 in0.0 mm 0.00 in0.0 mm
03:30 AM 49.5°F9.7°C 48.1°F8.9°C 95% Calm Calm -- 29.45 in997.3 mb - 0.00 in0.0 mm 0.00 in0.0 mm
04:00 AM 49.9°F9.9°C 48.5°F9.2°C 95% 4.6 mph SE7.4 kmh SE 6.9 mph11.1 kmh 29.43 in996.6 mb - 0.00 in0.0 mm 0.00 in0.0 mm
04:10 AM 50.1°F10.1°C 48.7°F9.3°C 95% 3.5 mph SE5.6 kmh SE 10.4 mph16.7 kmh 29.42 in996.3 mb - 0.00 in0.0 mm 0.00 in0.0 mm
04:20 AM 50.2°F10.1°C 48.8°F9.3°C 95% 1.2 mph SSE1.9 kmh SSE 8.1 mph13.0 kmh 29.42 in996.3 mb - 0.00 in0.0 mm 0.00 in0.0 mm
04:40 AM 50.8°F10.4°C 49.1°F9.5°C 94% Calm Calm 3.5 mph5.6 kmh 29.41 in995.9 mb - 0.00 in0.0 mm 0.00 in0.0 mm
05:00 AM 50.7°F10.4°C 48.7°F9.3°C 93% 5.8 mph SSE9.3 kmh SSE 15.0 mph24.1 kmh 29.40 in995.6 mb - 0.00 in0.0 mm 0.00 in0.0 mm
05:10 AM 50.5°F10.3°C 48.8°F9.3°C 94% 4.6 mph SSE7.4 kmh SSE 12.7 mph20.4 kmh 29.40 in995.6 mb - 0.00 in0.0 mm 0.00 in0.0 mm
05:20 AM 50.1°F10.1°C 48.4°F9.1°C 94% 4.6 mph SSE7.4 kmh SSE 11.5 mph18.5 kmh 29.39 in995.3 mb - 0.00 in0.0 mm 0.00 in0.0 mm
05:30 AM 49.8°F9.9°C 48.2°F9.0°C 94% 5.8 mph SE9.3 kmh SE 10.4 mph16.7 kmh 29.38 in994.9 mb - 0.00 in0.0 mm 0.00 in0.0 mm
05:40 AM 49.7°F9.8°C 48.3°F9.1°C 95% 5.8 mph SE9.3 kmh SE 11.5 mph18.5 kmh 29.38 in994.9 mb - 0.01 in0.3 mm 0.01 in0.3 mm
05:50 AM 49.6°F9.8°C 48.5°F9.2°C 96% 6.9 mph SE11.1 kmh SE 13.8 mph22.2 kmh 29.37 in994.6 mb - 0.00 in0.0 mm 0.01 in0.3 mm
06:00 AM 49.7°F9.8°C 48.6°F9.2°C 96% 5.8 mph SE9.3 kmh SE 11.5 mph18.5 kmh 29.36 in994.2 mb - 0.01 in0.3 mm 0.02 in0.5 mm
06:20 AM 50.1°F10.1°C 49.0°F9.4°C 96% 9.2 mph SE14.8 kmh SE 18.4 mph29.6 kmh 29.35 in993.9 mb - 0.00 in0.0 mm 0.02 in0.5 mm
06:30 AM 50.4°F10.2°C 49.3°F9.6°C 96% 6.9 mph SE11.1 kmh SE 12.7 mph20.4 kmh 29.34 in993.6 mb - 0.01 in0.3 mm 0.02 in0.5 mm
06:40 AM 50.7°F10.4°C 49.9°F9.9°C 97% 8.1 mph SE13.0 kmh SE 19.6 mph31.5 kmh 29.33 in993.2 mb - 0.00 in0.0 mm 0.02 in0.5 mm
06:50 AM 51.1°F10.6°C 50.2°F10.1°C 97% 9.2 mph SSE14.8 kmh SSE 11.5 mph18.5 kmh 29.32 in992.9 mb - 0.00 in0.0 mm 0.02 in0.5 mm
07:00 AM 51.4°F10.8°C 50.6°F10.3°C 97% 6.9 mph SE11.1 kmh SE 24.2 mph38.9 kmh 29.32 in992.9 mb - 0.01 in0.3 mm 0.03 in0.8 mm
07:10 AM 51.8°F11.0°C 51.0°F10.6°C 97% 10.4 mph SSE16.7 kmh SSE 13.8 mph22.2 kmh 29.32 in992.9 mb - 0.00 in0.0 mm 0.03 in0.8 mm
07:20 AM 52.1°F11.2°C 51.3°F10.7°C 97% 4.6 mph SSE7.4 kmh SSE 11.5 mph18.5 kmh 29.31 in992.6 mb - 0.00 in0.0 mm 0.03 in0.8 mm
07:30 AM 52.3°F11.3°C 51.5°F10.8°C 97% 5.8 mph SE9.3 kmh SE 12.7 mph20.4 kmh 29.31 in992.6 mb - 0.00 in0.0 mm 0.03 in0.8 mm
07:40 AM 52.5°F11.4°C 51.7°F10.9°C 97% 8.1 mph SE13.0 kmh SE 19.6 mph31.5 kmh 29.31 in992.6 mb - 0.01 in0.3 mm 0.04 in1.0 mm
07:50 AM 53.1°F11.7°C 52.3°F11.3°C 97% 9.2 mph S14.8 kmh S 19.6 mph31.5 kmh 29.30 in992.2 mb - 0.01 in0.3 mm 0.05 in1.3 mm
08:00 AM 53.7°F12.1°C 52.9°F11.6°C 97% 8.1 mph S13.0 kmh S 18.4 mph29.6 kmh 29.30 in992.2 mb - 0.00 in0.0 mm 0.05 in1.3 mm
08:10 AM 54.0°F12.2°C 53.2°F11.8°C 97% 8.1 mph S13.0 kmh S 19.6 mph31.5 kmh 29.30 in992.2 mb - 0.01 in0.3 mm 0.06 in1.5 mm
08:20 AM 54.4°F12.4°C 53.5°F11.9°C 97% 10.4 mph S16.7 kmh S 20.7 mph33.3 kmh 29.30 in992.2 mb - 0.01 in0.3 mm 0.06 in1.5 mm
08:30 AM 54.6°F12.6°C 53.8°F12.1°C 97% 8.1 mph S13.0 kmh S 20.7 mph33.3 kmh 29.30 in992.2 mb - 0.00 in0.0 mm 0.06 in1.5 mm
08:40 AM 54.7°F12.6°C 53.9°F12.2°C 97% 8.1 mph S13.0 kmh S 19.6 mph31.5 kmh 29.30 in992.2 mb - 0.00 in0.0 mm 0.06 in1.5 mm
08:50 AM 54.8°F12.7°C 53.7°F12.1°C 96% 12.7 mph S20.4 kmh S 25.3 mph40.7 kmh 29.30 in992.2 mb - 0.00 in0.0 mm 0.06 in1.5 mm
09:00 AM 54.9°F12.7°C 53.8°F12.1°C 96% 4.6 mph S7.4 kmh S 13.8 mph22.2 kmh 29.30 in992.2 mb - 0.00 in0.0 mm 0.06 in1.5 mm
09:10 AM 55.1°F12.8°C 54.0°F12.2°C 96% 9.2 mph S14.8 kmh S 13.8 mph22.2 kmh 29.30 in992.2 mb - 0.00 in0.0 mm 0.06 in1.5 mm
09:20 AM 55.2°F12.9°C 54.1°F12.3°C 96% 5.8 mph S9.3 kmh S 12.7 mph20.4 kmh 29.30 in992.2 mb - 0.00 in0.0 mm 0.06 in1.5 mm
09:30 AM 55.2°F12.9°C 54.1°F12.3°C 96% 13.8 mph S22.2 kmh S 20.7 mph33.3 kmh 29.30 in992.2 mb - 0.01 in0.3 mm 0.06 in1.5 mm
09:40 AM 55.3°F12.9°C 54.2°F12.3°C 96% 8.1 mph S13.0 kmh S 13.8 mph22.2 kmh 29.30 in992.2 mb - 0.00 in0.0 mm 0.06 in1.5 mm
09:50 AM 55.3°F12.9°C 53.9°F12.2°C 95% 5.8 mph SSW9.3 kmh SSW 20.7 mph33.3 kmh 29.30 in992.2 mb - 0.00 in0.0 mm 0.06 in1.5 mm
10:00 AM 55.4°F13.0°C 54.0°F12.2°C 95% 8.1 mph SSW13.0 kmh SSW 19.6 mph31.5 kmh 29.30 in992.2 mb - 0.00 in0.0 mm 0.06 in1.5 mm
10:10 AM 55.5°F13.1°C 53.8°F12.1°C 94% 5.8 mph SSW9.3 kmh SSW 19.6 mph31.5 kmh 29.30 in992.2 mb - 0.00 in0.0 mm 0.06 in1.5 mm
10:20 AM 55.6°F13.1°C 53.9°F12.2°C 94% 5.8 mph S9.3 kmh S 11.5 mph18.5 kmh 29.30 in992.2 mb - 0.00 in0.0 mm 0.06 in1.5 mm
10:30 AM 55.7°F13.2°C 54.0°F12.2°C 94% 6.9 mph S11.1 kmh S 11.5 mph18.5 kmh 29.30 in992.2 mb - 0.00 in0.0 mm 0.06 in1.5 mm
10:40 AM 55.7°F13.2°C 53.8°F12.1°C 93% 9.2 mph S14.8 kmh S 19.6 mph31.5 kmh 29.29 in991.9 mb - 0.00 in0.0 mm 0.06 in1.5 mm
10:50 AM 55.9°F13.3°C 53.9°F12.2°C 93% 12.7 mph SSW20.4 kmh SSW 20.7 mph33.3 kmh 29.29 in991.9 mb - 0.00 in0.0 mm 0.06 in1.5 mm
11:00 AM 56.0°F13.3°C 53.7°F12.1°C 92% 6.9 mph S11.1 kmh S 12.7 mph20.4 kmh 29.29 in991.9 mb - 0.00 in0.0 mm 0.06 in1.5 mm
11:10 AM 56.1°F13.4°C 53.8°F12.1°C 92% 4.6 mph S7.4 kmh S 13.8 mph22.2 kmh 29.29 in991.9 mb - 0.00 in0.0 mm 0.06 in1.5 mm
11:20 AM 56.4°F13.6°C 54.1°F12.3°C 92% 10.4 mph S16.7 kmh S 20.7 mph33.3 kmh 29.29 in991.9 mb - 0.00 in0.0 mm 0.06 in1.5 mm
11:30 AM 56.3°F13.5°C 53.4°F11.9°C 90% 6.9 mph S11.1 kmh S 11.5 mph18.5 kmh 29.29 in991.9 mb - 0.00 in0.0 mm 0.06 in1.5 mm
11:40 AM 56.2°F13.4°C 53.3°F11.8°C 90% 6.9 mph S11.1 kmh S 23.0 mph37.0 kmh 29.29 in991.9 mb - 0.00 in0.0 mm 0.06 in1.5 mm
11:50 AM 56.4°F13.6°C 53.8°F12.1°C 91% 9.2 mph S14.8 kmh S 16.1 mph25.9 kmh 29.29 in991.9 mb - 0.00 in0.0 mm 0.06 in1.5 mm
12:00 PM 56.4°F13.6°C 53.5°F11.9°C 90% 4.6 mph S7.4 kmh S 8.1 mph13.0 kmh 29.28 in991.5 mb - 0.00 in0.0 mm 0.06 in1.5 mm
12:10 PM 56.2°F13.4°C 53.6°F12.0°C 91% 2.3 mph S3.7 kmh S 20.7 mph33.3 kmh 29.27 in991.2 mb - 0.00 in0.0 mm 0.06 in1.5 mm
12:20 PM 56.0°F13.3°C 53.4°F11.9°C 91% 9.2 mph S14.8 kmh S 19.6 mph31.5 kmh 29.27 in991.2 mb - 0.00 in0.0 mm 0.06 in1.5 mm
12:30 PM 56.2°F13.4°C 53.6°F12.0°C 91% 9.2 mph S14.8 kmh S 18.4 mph29.6 kmh 29.27 in991.2 mb - 0.00 in0.0 mm 0.06 in1.5 mm
12:40 PM 56.2°F13.4°C 53.6°F12.0°C 91% 6.9 mph S11.1 kmh S 15.0 mph24.1 kmh 29.27 in991.2 mb - 0.00 in0.0 mm 0.06 in1.5 mm
12:50 PM 55.9°F13.3°C 53.3°F11.8°C 91% 8.1 mph S13.0 kmh S 19.6 mph31.5 kmh 29.27 in991.2 mb - 0.00 in0.0 mm 0.06 in1.5 mm
01:00 PM 55.8°F13.2°C 52.9°F11.6°C 90% 8.1 mph S13.0 kmh S 11.5 mph18.5 kmh 29.26 in990.9 mb - 0.00 in0.0 mm 0.06 in1.5 mm
01:10 PM 56.1°F13.4°C 53.2°F11.8°C 90% 3.5 mph S5.6 kmh S 15.0 mph24.1 kmh 29.26 in990.9 mb - 0.00 in0.0 mm 0.06 in1.5 mm
01:20 PM 56.1°F13.4°C 53.5°F11.9°C 91% 9.2 mph S14.8 kmh S 12.7 mph20.4 kmh 29.25 in990.5 mb - 0.01 in0.3 mm 0.07 in1.8 mm
01:30 PM 55.6°F13.1°C 53.3°F11.8°C 92% 3.5 mph SSW5.6 kmh SSW 12.7 mph20.4 kmh 29.25 in990.5 mb - 0.06 in1.5 mm 0.13 in3.3 mm
01:40 PM 55.0°F12.8°C 53.0°F11.7°C 93% 8.1 mph S13.0 kmh S 15.0 mph24.1 kmh 29.25 in990.5 mb - 0.00 in0.0 mm 0.13 in3.3 mm
01:50 PM 54.9°F12.7°C 52.9°F11.6°C 93% 4.6 mph SSW7.4 kmh SSW 10.4 mph16.7 kmh 29.25 in990.5 mb - 0.00 in0.0 mm 0.13 in3.3 mm
02:00 PM 54.7°F12.6°C 52.7°F11.5°C 93% 9.2 mph S14.8 kmh S 20.7 mph33.3 kmh 29.25 in990.5 mb - 0.00 in0.0 mm 0.13 in3.3 mm
02:10 PM 54.6°F12.6°C 52.3°F11.3°C 92% 8.1 mph SSW13.0 kmh SSW 23.0 mph37.0 kmh 29.25 in990.5 mb - 0.00 in0.0 mm 0.13 in3.3 mm
02:20 PM 54.6°F12.6°C 52.3°F11.3°C 92% 5.8 mph S9.3 kmh S 10.4 mph16.7 kmh 29.25 in990.5 mb - 0.00 in0.0 mm 0.13 in3.3 mm
02:30 PM 54.4°F12.4°C 51.8°F11.0°C 91% 9.2 mph S14.8 kmh S 21.9 mph35.2 kmh 29.24 in990.2 mb - 0.00 in0.0 mm 0.13 in3.3 mm
02:40 PM 54.3°F12.4°C 51.4°F10.8°C 90% 9.2 mph S14.8 kmh S 18.4 mph29.6 kmh 29.24 in990.2 mb - 0.01 in0.3 mm 0.14 in3.6 mm
02:50 PM 54.1°F12.3°C 51.2°F10.7°C 90% 9.2 mph S14.8 kmh S 19.6 mph31.5 kmh 29.24 in990.2 mb - 0.00 in0.0 mm 0.14 in3.6 mm
03:00 PM 53.9°F12.2°C 51.1°F10.6°C 90% 5.8 mph S9.3 kmh S 16.1 mph25.9 kmh 29.23 in989.8 mb - 0.00 in0.0 mm 0.14 in3.6 mm
03:10 PM 53.7°F12.1°C 50.8°F10.4°C 90% 5.8 mph SSW9.3 kmh SSW 15.0 mph24.1 kmh 29.23 in989.8 mb - 0.00 in0.0 mm 0.14 in3.6 mm
03:20 PM 53.4°F11.9°C 50.6°F10.3°C 90% 6.9 mph SSW11.1 kmh SSW 13.8 mph22.2 kmh 29.23 in989.8 mb - 0.00 in0.0 mm 0.14 in3.6 mm
03:30 PM 53.3°F11.8°C 50.4°F10.2°C 90% 6.9 mph S11.1 kmh S 11.5 mph18.5 kmh 29.24 in990.2 mb - 0.00 in0.0 mm 0.14 in3.6 mm
03:40 PM 53.2°F11.8°C 50.3°F10.2°C 90% 4.6 mph S7.4 kmh S 11.5 mph18.5 kmh 29.24 in990.2 mb - 0.00 in0.0 mm 0.14 in3.6 mm
03:50 PM 53.0°F11.7°C 50.1°F10.1°C 90% 9.2 mph SSW14.8 kmh SSW 11.5 mph18.5 kmh 29.24 in990.2 mb - 0.00 in0.0 mm 0.14 in3.6 mm
04:00 PM 52.9°F11.6°C 50.0°F10.0°C 90% 5.8 mph S9.3 kmh S 11.5 mph18.5 kmh 29.23 in989.8 mb - 0.00 in0.0 mm 0.14 in3.6 mm
04:10 PM 52.8°F11.6°C 49.9°F9.9°C 90% 5.8 mph S9.3 kmh S 11.5 mph18.5 kmh 29.23 in989.8 mb - 0.00 in0.0 mm 0.14 in3.6 mm
04:20 PM 52.9°F11.6°C 50.0°F10.0°C 90% 10.4 mph S16.7 kmh S 15.0 mph24.1 kmh 29.23 in989.8 mb - 0.00 in0.0 mm 0.14 in3.6 mm
04:30 PM 52.8°F11.6°C 50.0°F10.0°C 90% 4.6 mph S7.4 kmh S 10.4 mph16.7 kmh 29.23 in989.8 mb - 0.00 in0.0 mm 0.14 in3.6 mm
04:40 PM 52.7°F11.5°C 49.8°F9.9°C 90% 9.2 mph S14.8 kmh S 16.1 mph25.9 kmh 29.22 in989.5 mb - 0.00 in0.0 mm 0.14 in3.6 mm
04:50 PM 52.7°F11.5°C 49.8°F9.9°C 90% 6.9 mph S11.1 kmh S 12.7 mph20.4 kmh 29.22 in989.5 mb - 0.00 in0.0 mm 0.14 in3.6 mm
05:00 PM 52.6°F11.4°C 49.8°F9.9°C 90% 6.9 mph S11.1 kmh S 11.5 mph18.5 kmh 29.22 in989.5 mb - 0.00 in0.0 mm 0.14 in3.6 mm
05:10 PM 52.5°F11.4°C 49.6°F9.8°C 90% 3.5 mph S5.6 kmh S 12.7 mph20.4 kmh 29.22 in989.5 mb - 0.00 in0.0 mm 0.14 in3.6 mm
05:20 PM 52.3°F11.3°C 49.8°F9.9°C 91% 3.5 mph S5.6 kmh S 9.2 mph14.8 kmh 29.22 in989.5 mb - 0.00 in0.0 mm 0.14 in3.6 mm
05:30 PM 52.5°F11.4°C 50.0°F10.0°C 91% 6.9 mph S11.1 kmh S 13.8 mph22.2 kmh 29.22 in989.5 mb - 0.00 in0.0 mm 0.14 in3.6 mm
05:40 PM 52.6°F11.4°C 50.0°F10.0°C 91% 8.1 mph SSW13.0 kmh SSW 15.0 mph24.1 kmh 29.22 in989.5 mb - 0.00 in0.0 mm 0.14 in3.6 mm
05:50 PM 52.7°F11.5°C 50.1°F10.1°C 91% 6.9 mph S11.1 kmh S 12.7 mph20.4 kmh 29.22 in989.5 mb - 0.00 in0.0 mm 0.14 in3.6 mm
06:00 PM 52.9°F11.6°C 50.3°F10.2°C 91% 8.1 mph S13.0 kmh S 19.6 mph31.5 kmh 29.21 in989.2 mb - 0.00 in0.0 mm 0.14 in3.6 mm
06:10 PM 52.8°F11.6°C 49.9°F9.9°C 90% 4.6 mph S7.4 kmh S 12.7 mph20.4 kmh 29.21 in989.2 mb - 0.00 in0.0 mm 0.14 in3.6 mm
06:20 PM 52.7°F11.5°C 50.1°F10.1°C 91% 6.9 mph S11.1 kmh S 13.8 mph22.2 kmh 29.21 in989.2 mb - 0.00 in0.0 mm 0.14 in3.6 mm
06:30 PM 52.7°F11.5°C 50.2°F10.1°C 91% 4.6 mph S7.4 kmh S 11.5 mph18.5 kmh 29.21 in989.2 mb - 0.00 in0.0 mm 0.14 in3.6 mm
06:40 PM 52.7°F11.5°C 50.5°F10.3°C 92% 4.6 mph S7.4 kmh S 12.7 mph20.4 kmh 29.20 in988.8 mb - 0.01 in0.3 mm 0.15 in3.8 mm
06:50 PM 52.6°F11.4°C 50.6°F10.3°C 93% 2.3 mph S3.7 kmh S 11.5 mph18.5 kmh 29.20 in988.8 mb - 0.02 in0.5 mm 0.17 in4.3 mm
07:00 PM 52.4°F11.3°C 50.4°F10.2°C 93% 8.1 mph S13.0 kmh S 13.8 mph22.2 kmh 29.20 in988.8 mb - 0.00 in0.0 mm 0.17 in4.3 mm
07:10 PM 52.3°F11.3°C 50.3°F10.2°C 93% 1.2 mph S1.9 kmh S 4.6 mph7.4 kmh 29.19 in988.5 mb - 0.00 in0.0 mm 0.17 in4.3 mm
07:20 PM 52.0°F11.1°C 50.1°F10.1°C 93% 3.5 mph S5.6 kmh S 8.1 mph13.0 kmh 29.19 in988.5 mb - 0.00 in0.0 mm 0.17 in4.3 mm
07:30 PM 51.9°F11.1°C 49.9°F9.9°C 93% 1.2 mph SE1.9 kmh SE 4.6 mph7.4 kmh 29.19 in988.5 mb - 0.00 in0.0 mm 0.17 in4.3 mm
07:40 PM 51.6°F10.9°C 49.6°F9.8°C 93% 2.3 mph S3.7 kmh S 10.4 mph16.7 kmh 29.19 in988.5 mb - 0.00 in0.0 mm 0.17 in4.3 mm
07:50 PM 51.4°F10.8°C 49.5°F9.7°C 93% 2.3 mph SSE3.7 kmh SSE 11.5 mph18.5 kmh 29.19 in988.5 mb - 0.01 in0.3 mm 0.17 in4.3 mm
08:20 PM 51.8°F11.0°C 49.9°F9.9°C 93% 4.6 mph S7.4 kmh S 10.4 mph16.7 kmh 29.19 in988.5 mb - 0.00 in0.0 mm 0.17 in4.3 mm
08:30 PM 51.8°F11.0°C 49.8°F9.9°C 93% Calm Calm 9.2 mph14.8 kmh 29.18 in988.1 mb - 0.00 in0.0 mm 0.17 in4.3 mm
08:40 PM 51.7°F10.9°C 49.7°F9.8°C 93% 3.5 mph SSE5.6 kmh SSE 11.5 mph18.5 kmh 29.17 in987.8 mb - 0.00 in0.0 mm 0.17 in4.3 mm
08:50 PM 51.6°F10.9°C 49.7°F9.8°C 93% 4.6 mph SE7.4 kmh SE 12.7 mph20.4 kmh 29.17 in987.8 mb - 0.00 in0.0 mm 0.17 in4.3 mm
09:00 PM 51.7°F10.9°C 49.7°F9.8°C 93% 3.5 mph SSE5.6 kmh SSE 9.2 mph14.8 kmh 29.17 in987.8 mb - 0.00 in0.0 mm 0.17 in4.3 mm
09:10 PM 51.7°F10.9°C 49.7°F9.8°C 93% 3.5 mph SSE5.6 kmh SSE 10.4 mph16.7 kmh 29.16 in987.5 mb - 0.00 in0.0 mm 0.17 in4.3 mm
09:20 PM 51.7°F10.9°C 49.7°F9.8°C 93% 1.2 mph SE1.9 kmh SE 10.4 mph16.7 kmh 29.16 in987.5 mb - 0.00 in0.0 mm 0.17 in4.3 mm
09:30 PM 51.5°F10.8°C 49.6°F9.8°C 93% Calm Calm -- 29.15 in987.1 mb - 0.00 in0.0 mm 0.17 in4.3 mm
09:40 PM 51.3°F10.7°C 49.4°F9.7°C 93% Calm Calm -- 29.14 in986.8 mb - 0.00 in0.0 mm 0.17 in4.3 mm
09:50 PM 51.2°F10.7°C 49.2°F9.6°C 93% 2.3 mph SE3.7 kmh SE 6.9 mph11.1 kmh 29.13 in986.5 mb - 0.00 in0.0 mm 0.17 in4.3 mm
10:00 PM 51.3°F10.7°C 49.7°F9.8°C 94% 1.2 mph SE1.9 kmh SE 9.2 mph14.8 kmh 29.12 in986.1 mb - 0.00 in0.0 mm 0.17 in4.3 mm
10:10 PM 51.5°F10.8°C 49.8°F9.9°C 94% 3.5 mph SE5.6 kmh SE 10.4 mph16.7 kmh 29.12 in986.1 mb - 0.00 in0.0 mm 0.17 in4.3 mm
10:20 PM 51.5°F10.8°C 49.8°F9.9°C 94% 2.3 mph SE3.7 kmh SE 5.8 mph9.3 kmh 29.11 in985.8 mb - 0.00 in0.0 mm 0.17 in4.3 mm
10:30 PM 51.5°F10.8°C 49.9°F9.9°C 94% 2.3 mph SE3.7 kmh SE 10.4 mph16.7 kmh 29.11 in985.8 mb - 0.00 in0.0 mm 0.17 in4.3 mm
10:40 PM 51.4°F10.8°C 49.7°F9.8°C 94% 4.6 mph SSE7.4 kmh SSE 11.5 mph18.5 kmh 29.11 in985.8 mb - 0.00 in0.0 mm 0.17 in4.3 mm
10:50 PM 51.4°F10.8°C 49.7°F9.8°C 94% Calm Calm -- 29.10 in985.4 mb - 0.00 in0.0 mm 0.17 in4.3 mm
11:00 PM 51.3°F10.7°C 49.6°F9.8°C 94% Calm Calm -- 29.09 in985.1 mb - 0.00 in0.0 mm 0.17 in4.3 mm
11:10 PM 51.4°F10.8°C 49.7°F9.8°C 94% Calm Calm 3.5 mph5.6 kmh 29.09 in985.1 mb - 0.00 in0.0 mm 0.17 in4.3 mm
11:20 PM 51.5°F10.8°C 49.9°F9.9°C 94% 2.3 mph SSE3.7 kmh SSE 8.1 mph13.0 kmh 29.08 in984.8 mb - 0.00 in0.0 mm 0.17 in4.3 mm
11:30 PM 51.8°F11.0°C 50.4°F10.2°C 95% 8.1 mph SSE13.0 kmh SSE 12.7 mph20.4 kmh 29.09 in985.1 mb - 0.02 in0.5 mm 0.19 in4.8 mm
11:40 PM 51.0°F10.6°C 49.3°F9.6°C 94% 3.5 mph S5.6 kmh S 10.4 mph16.7 kmh 29.09 in985.1 mb - 0.02 in0.5 mm 0.20 in5.1 mm
11:50 PM 50.1°F10.1°C 48.2°F9.0°C 93% Calm Calm 3.5 mph5.6 kmh 29.09 in985.1 mb - 0.01 in0.3 mm 0.21 in5.3 mm